Time;durP1;ratioP1;P1;durP2;ratioP2;P2;SDS_P1;SDS_P2;PMS_P1;PMS_P2;Temp;Humidity;BMP_temperature;BMP_pressure;BME280_temperature;BME280_humidity;BME280_pressure;Samples;Min_cycle;Max_cycle;Signal;HPM_P1;HPM_P2
2021/09/06 00:02:05;;;;;;;2.40;2.13;;;23.00;46.70;;;;;;4769807;30;20641;-74
2021/09/06 00:04:33;;;;;;;2.13;1.92;;;23.00;46.70;;;;;;4782082;29;20109;-74
2021/09/06 00:07:01;;;;;;;2.30;2.10;;;23.00;46.80;;;;;;4786060;29;20142;-74
2021/09/06 00:09:29;;;;;;;2.45;2.10;;;23.00;46.80;;;;;;4785494;29;20086;-74
2021/09/06 00:11:56;;;;;;;2.53;2.22;;;23.00;46.80;;;;;;4779529;29;20142;-73
2021/09/06 00:14:24;;;;;;;2.28;2.08;;;22.90;46.70;;;;;;4781682;29;20051;-74
2021/09/06 00:16:51;;;;;;;2.30;1.80;;;22.90;46.80;;;;;;4785402;29;20096;-74
2021/09/06 00:19:18;;;;;;;2.20;2.00;;;22.90;46.80;;;;;;4789846;29;20114;-74
2021/09/06 00:21:45;;;;;;;2.90;2.17;;;23.00;46.80;;;;;;4785961;29;20108;-71
2021/09/06 00:24:12;;;;;;;2.30;2.10;;;22.90;46.80;;;;;;4783362;29;20126;-74
2021/09/06 00:26:39;;;;;;;2.13;2.03;;;22.90;46.80;;;;;;4788154;29;20075;-73
2021/09/06 00:29:06;;;;;;;2.60;2.40;;;22.90;46.80;;;;;;4772718;29;20059;-74
2021/09/06 00:31:33;;;;;;;2.35;2.15;;;22.90;46.90;;;;;;4784941;29;20289;-74
2021/09/06 00:34:01;;;;;;;2.10;1.90;;;22.90;46.90;;;;;;4785829;29;20288;-74
2021/09/06 00:36:28;;;;;;;2.47;2.28;;;22.90;46.90;;;;;;4787304;29;20491;-74
2021/09/06 00:38:55;;;;;;;2.25;2.05;;;22.90;46.90;;;;;;4785221;29;20532;-75
2021/09/06 00:41:24;;;;;;;2.85;2.20;;;22.90;46.90;;;;;;4781159;29;20055;-70
2021/09/06 00:43:53;;;;;;;2.67;2.22;;;22.90;47.00;;;;;;4780222;29;20088;-75
2021/09/06 00:46:20;;;;;;;3.05;2.75;;;22.90;47.00;;;;;;4785431;29;20047;-74
2021/09/06 00:48:47;;;;;;;2.53;2.33;;;22.90;47.00;;;;;;4784835;29;20051;-75
2021/09/06 00:51:18;;;;;;;2.05;1.85;;;22.90;47.00;;;;;;4781937;29;20090;-71
2021/09/06 00:53:45;;;;;;;2.30;2.08;;;22.90;47.00;;;;;;4791464;29;20055;-74
2021/09/06 00:56:12;;;;;;;2.65;2.10;;;22.90;46.90;;;;;;4783332;29;20093;-72
2021/09/06 00:58:39;;;;;;;2.90;2.03;;;22.90;46.90;;;;;;4783449;29;20440;-75
2021/09/06 01:01:06;;;;;;;2.10;1.90;;;22.90;46.90;;;;;;4782705;29;20058;-74
2021/09/06 01:03:34;;;;;;;2.30;2.00;;;22.90;46.90;;;;;;4774680;29;20505;-71
2021/09/06 01:06:01;;;;;;;2.20;2.00;;;22.90;46.90;;;;;;4782152;29;20592;-75
2021/09/06 01:08:28;;;;;;;1.92;1.83;;;22.90;46.90;;;;;;4782908;29;20070;-74
2021/09/06 01:10:56;;;;;;;2.35;2.15;;;22.90;46.90;;;;;;4782315;29;20509;-74
2021/09/06 01:13:24;;;;;;;2.35;2.15;;;22.90;46.90;;;;;;4774867;29;20087;-75
2021/09/06 01:15:51;;;;;;;2.40;2.20;;;22.90;46.90;;;;;;4783171;29;20544;-74
2021/09/06 01:18:18;;;;;;;2.33;2.00;;;22.90;46.90;;;;;;4782132;30;20132;-75
2021/09/06 01:20:45;;;;;;;2.08;1.90;;;22.90;46.90;;;;;;4783061;29;20062;-74
2021/09/06 01:23:12;;;;;;;2.17;1.98;;;22.90;47.00;;;;;;4773282;29;20138;-74
2021/09/06 01:25:39;;;;;;;2.33;2.15;;;22.90;47.00;;;;;;4782745;29;20147;-74
2021/09/06 01:28:06;;;;;;;3.10;1.90;;;22.90;47.00;;;;;;4783984;29;20107;-74
2021/09/06 01:30:34;;;;;;;2.47;1.90;;;22.90;47.00;;;;;;4783042;29;20108;-75
2021/09/06 01:33:01;;;;;;;2.10;2.00;;;22.90;47.00;;;;;;4774709;29;20051;-74
2021/09/06 01:35:28;;;;;;;2.30;2.00;;;22.90;47.10;;;;;;4781830;29;20134;-75
2021/09/06 01:37:55;;;;;;;2.08;1.60;;;22.90;47.10;;;;;;4783495;29;20737;-74
2021/09/06 01:40:23;;;;;;;2.35;2.15;;;22.90;47.10;;;;;;4782786;29;20052;-74
2021/09/06 01:42:51;;;;;;;3.17;2.30;;;22.90;47.10;;;;;;4773907;29;20063;-74
2021/09/06 01:45:19;;;;;;;1.55;1.45;;;22.90;47.10;;;;;;4783554;29;20140;-74
2021/09/06 01:47:46;;;;;;;2.40;2.20;;;22.90;47.20;;;;;;4782988;29;20063;-73
2021/09/06 01:50:13;;;;;;;2.47;2.28;;;22.90;47.10;;;;;;4784008;29;20441;-75
2021/09/06 01:52:40;;;;;;;2.30;2.10;;;22.90;47.20;;;;;;4775321;29;20179;-71
2021/09/06 01:55:08;;;;;;;2.20;2.00;;;22.90;47.20;;;;;;4783259;29;20275;-74
2021/09/06 01:57:36;;;;;;;1.75;1.65;;;22.90;47.20;;;;;;4783857;29;20138;-74
2021/09/06 02:00:05;;;;;;;1.85;1.73;;;22.80;47.10;;;;;;4783651;29;20116;-75
2021/09/06 02:02:32;;;;;;;1.85;1.75;;;22.90;47.20;;;;;;4773440;29;20059;-70
2021/09/06 02:04:59;;;;;;;2.08;1.88;;;22.90;47.20;;;;;;4783007;29;20059;-75
2021/09/06 02:07:26;;;;;;;2.55;1.67;;;22.80;47.20;;;;;;4782467;29;20048;-75
2021/09/06 02:09:53;;;;;;;4.47;2.20;;;22.80;47.20;;;;;;4782941;29;20584;-74
2021/09/06 02:12:20;;;;;;;3.10;2.20;;;22.80;47.20;;;;;;4775777;29;20055;-71
2021/09/06 02:14:47;;;;;;;2.00;1.80;;;22.80;47.20;;;;;;4780693;29;20138;-74
2021/09/06 02:17:15;;;;;;;2.10;1.90;;;22.80;47.20;;;;;;4781455;30;20426;-74
2021/09/06 02:19:42;;;;;;;2.33;1.98;;;22.80;47.20;;;;;;4785361;29;20205;-74
2021/09/06 02:22:09;;;;;;;1.70;1.60;;;22.80;47.10;;;;;;4780188;29;20582;-74
2021/09/06 02:24:36;;;;;;;2.08;1.90;;;22.90;47.20;;;;;;4783785;29;20093;-74
2021/09/06 02:27:03;;;;;;;2.42;1.90;;;22.90;47.20;;;;;;4784780;30;20422;-74
2021/09/06 02:29:30;;;;;;;2.03;1.80;;;22.80;47.10;;;;;;4786389;29;20078;-74
2021/09/06 02:31:57;;;;;;;2.60;2.00;;;22.90;47.10;;;;;;4794958;29;20067;-73
2021/09/06 02:34:24;;;;;;;2.17;1.95;;;22.90;47.10;;;;;;4783034;29;20055;-72
2021/09/06 02:36:52;;;;;;;2.03;1.70;;;22.90;47.10;;;;;;4786085;29;20147;-74
2021/09/06 02:39:19;;;;;;;1.75;1.65;;;22.90;47.10;;;;;;4785691;29;20481;-75
2021/09/06 02:41:46;;;;;;;2.15;2.00;;;22.90;47.10;;;;;;4781840;29;20430;-70
2021/09/06 02:44:13;;;;;;;2.05;1.88;;;22.90;47.10;;;;;;4780513;29;20105;-74
2021/09/06 02:46:40;;;;;;;1.80;1.70;;;22.90;47.70;;;;;;4799645;29;20047;-74
2021/09/06 02:49:08;;;;;;;2.35;1.75;;;22.80;47.10;;;;;;4785359;29;20058;-74
2021/09/06 02:51:35;;;;;;;2.20;1.85;;;22.90;47.20;;;;;;4783443;29;20130;-73
2021/09/06 02:54:02;;;;;;;2.15;1.90;;;22.90;47.20;;;;;;4780922;29;20074;-74
2021/09/06 02:56:29;;;;;;;1.70;1.60;;;22.80;47.10;;;;;;4785945;29;20306;-70
2021/09/06 02:58:56;;;;;;;2.38;1.77;;;22.80;47.10;;;;;;4785535;29;20153;-74
2021/09/06 03:01:23;;;;;;;1.95;1.85;;;22.80;47.10;;;;;;4782969;29;20062;-73
2021/09/06 03:03:50;;;;;;;1.92;1.77;;;22.80;47.20;;;;;;4779447;29;20047;-74
2021/09/06 03:06:17;;;;;;;1.60;1.50;;;22.80;47.20;;;;;;4785687;29;20055;-74
2021/09/06 03:08:44;;;;;;;2.03;1.83;;;22.80;47.20;;;;;;4785249;29;20678;-72
2021/09/06 03:11:11;;;;;;;1.70;1.60;;;22.80;47.20;;;;;;4768345;29;20090;-72
2021/09/06 03:13:39;;;;;;;2.35;1.88;;;22.80;47.30;;;;;;4779754;29;20122;-73
2021/09/06 03:16:06;;;;;;;2.22;1.90;;;22.80;47.30;;;;;;4785629;29;20161;-73
2021/09/06 03:18:33;;;;;;;1.80;1.70;;;22.80;47.30;;;;;;4785293;29;20061;-74
2021/09/06 03:21:00;;;;;;;2.03;1.83;;;22.80;47.30;;;;;;4785301;29;20134;-74
2021/09/06 03:23:27;;;;;;;2.10;1.90;;;22.80;47.90;;;;;;4775286;29;20722;-73
2021/09/06 03:25:54;;;;;;;1.55;1.45;;;22.80;47.30;;;;;;4785299;29;20083;-73
2021/09/06 03:28:21;;;;;;;1.70;1.60;;;22.80;47.30;;;;;;4798850;29;20087;-74
2021/09/06 03:30:48;;;;;;;1.73;1.63;;;22.80;47.30;;;;;;4784016;29;20059;-73
2021/09/06 03:33:15;;;;;;;1.33;1.30;;;22.70;47.30;;;;;;4775779;29;20059;-73
2021/09/06 03:35:43;;;;;;;1.58;1.48;;;22.80;47.40;;;;;;4783417;29;20087;-74
2021/09/06 03:38:13;;;;;;;1.73;1.58;;;22.80;47.40;;;;;;4785491;29;20111;-73
2021/09/06 03:40:41;;;;;;;1.48;1.38;;;22.80;47.40;;;;;;4785237;29;20066;-73
2021/09/06 03:43:09;;;;;;;1.98;1.77;;;22.80;47.40;;;;;;4776736;29;20113;-73
2021/09/06 03:45:36;;;;;;;1.55;1.42;;;22.70;47.40;;;;;;4784663;29;20055;-74
2021/09/06 03:48:03;;;;;;;1.58;1.48;;;22.70;47.40;;;;;;4784588;29;20133;-74
2021/09/06 03:50:30;;;;;;;1.75;1.65;;;22.80;47.40;;;;;;4784287;29;20147;-74
2021/09/06 03:52:57;;;;;;;1.50;1.40;;;22.70;47.40;;;;;;4775202;29;20385;-71
2021/09/06 03:55:24;;;;;;;1.55;1.42;;;22.80;47.40;;;;;;4784348;29;20116;-74
2021/09/06 03:57:51;;;;;;;1.63;1.52;;;22.70;47.40;;;;;;4783238;30;20488;-74
2021/09/06 04:00:18;;;;;;;1.60;1.50;;;22.70;47.40;;;;;;4784569;29;20090;-74
2021/09/06 04:02:46;;;;;;;1.40;1.30;;;22.70;47.40;;;;;;4776277;29;20074;-73
2021/09/06 04:05:13;;;;;;;1.92;1.73;;;22.80;47.50;;;;;;4784039;29;20055;-74
2021/09/06 04:07:40;;;;;;;1.60;1.50;;;22.70;47.40;;;;;;4784758;29;20134;-74
2021/09/06 04:10:08;;;;;;;1.42;1.33;;;22.70;47.40;;;;;;4785836;29;20047;-74
2021/09/06 04:12:35;;;;;;;1.42;1.33;;;22.70;47.40;;;;;;4775411;29;20094;-70
2021/09/06 04:15:03;;;;;;;1.50;1.40;;;22.70;47.40;;;;;;4783894;29;20055;-75
2021/09/06 04:17:31;;;;;;;1.50;1.40;;;22.70;47.40;;;;;;4787088;29;20261;-75
2021/09/06 04:19:58;;;;;;;1.60;1.50;;;22.70;47.30;;;;;;4792624;29;20474;-74
2021/09/06 04:22:25;;;;;;;1.52;1.42;;;22.80;47.30;;;;;;4781591;29;20051;-71
2021/09/06 04:24:52;;;;;;;1.50;1.40;;;22.80;47.30;;;;;;4788160;29;20331;-73
2021/09/06 04:27:19;;;;;;;1.60;1.45;;;22.80;47.30;;;;;;4792056;29;20062;-74
2021/09/06 04:29:46;;;;;;;2.35;1.60;;;22.80;47.20;;;;;;4791325;29;20074;-74
2021/09/06 04:32:13;;;;;;;2.13;1.70;;;22.80;47.20;;;;;;4782920;29;20116;-74
2021/09/06 04:34:41;;;;;;;1.58;1.48;;;22.80;47.20;;;;;;4786590;29;20044;-75
2021/09/06 04:37:08;;;;;;;1.75;1.65;;;22.80;47.10;;;;;;4791306;29;20082;-74
2021/09/06 04:39:35;;;;;;;1.17;1.15;;;22.80;47.10;;;;;;4797345;29;20388;-75
2021/09/06 04:42:03;;;;;;;1.40;1.30;;;22.80;47.10;;;;;;4788146;29;20158;-70
2021/09/06 04:44:30;;;;;;;1.23;1.13;;;22.80;47.10;;;;;;4778824;29;20138;-75
2021/09/06 04:46:57;;;;;;;1.38;1.27;;;22.80;47.10;;;;;;4786460;29;20075;-74
2021/09/06 04:49:24;;;;;;;1.45;1.35;;;22.80;47.10;;;;;;4787230;29;20194;-74
2021/09/06 04:51:51;;;;;;;1.42;1.30;;;22.80;47.10;;;;;;4777677;29;20475;-70
2021/09/06 04:54:19;;;;;;;1.48;1.38;;;22.80;47.10;;;;;;4780930;29;20051;-74
2021/09/06 04:56:46;;;;;;;1.25;1.20;;;22.80;47.10;;;;;;4782407;30;20055;-71
2021/09/06 04:59:16;;;;;;;1.20;1.10;;;22.80;47.00;;;;;;4782277;29;20043;-75
2021/09/06 05:01:43;;;;;;;1.13;1.02;;;22.80;47.00;;;;;;4778357;29;20112;-74
2021/09/06 05:04:10;;;;;;;2.08;1.73;;;22.90;47.10;;;;;;4777361;29;20062;-74
2021/09/06 05:06:37;;;;;;;1.73;1.63;;;22.90;47.00;;;;;;4782329;29;20130;-74
2021/09/06 05:09:04;;;;;;;1.50;1.40;;;22.90;47.00;;;;;;4782688;29;20079;-71
2021/09/06 05:11:32;;;;;;;1.48;1.38;;;22.90;46.70;;;;;;4779770;29;20059;-73
2021/09/06 05:13:59;;;;;;;1.70;1.23;;;22.80;46.50;;;;;;4774615;29;20043;-74
2021/09/06 05:16:27;;;;;;;1.48;1.25;;;22.80;46.50;;;;;;4781079;29;20081;-74
2021/09/06 05:18:54;;;;;;;2.55;1.25;;;22.80;46.30;;;;;;4782499;29;20120;-71
2021/09/06 05:21:21;;;;;;;1.20;1.10;;;22.80;46.30;;;;;;4784235;29;20399;-76
2021/09/06 05:23:49;;;;;;;0.80;0.80;;;22.70;46.40;;;;;;4775239;29;20075;-73
2021/09/06 05:26:16;;;;;;;2.65;1.73;;;22.70;46.50;;;;;;4780625;29;20051;-74
2021/09/06 05:28:43;;;;;;;6.00;1.45;;;22.50;46.50;;;;;;4778916;29;20073;-74
2021/09/06 05:31:10;;;;;;;1.77;1.42;;;22.40;46.70;;;;;;4781677;29;20090;-72
2021/09/06 05:33:38;;;;;;;2.47;1.55;;;22.30;46.90;;;;;;4767624;29;20134;-70
2021/09/06 05:36:05;;;;;;;1.95;1.73;;;22.20;47.20;;;;;;4770122;29;20138;-75
2021/09/06 05:38:32;;;;;;;2.33;1.23;;;22.10;47.30;;;;;;4772010;29;20122;-70
2021/09/06 05:40:59;;;;;;;1.75;1.33;;;22.00;47.60;;;;;;4779449;29;20068;-68
2021/09/06 05:43:45;;;;;;;2.78;1.60;;;21.80;48.40;;;;;;4771441;29;20048;-69
2021/09/06 05:46:14;;;;;;;5.65;2.22;;;21.70;49.20;;;;;;4769697;29;20680;-68
2021/09/06 05:48:42;;;;;;;3.72;1.70;;;21.60;49.50;;;;;;4777234;29;20116;-70
2021/09/06 05:51:17;;;;;;;4.55;1.58;;;21.50;49.80;;;;;;4775375;29;20053;-72
2021/09/06 05:53:45;;;;;;;2.35;1.40;;;21.40;49.90;;;;;;4770752;29;20065;-70
2021/09/06 05:56:18;;;;;;;4.80;1.90;;;21.40;49.80;;;;;;4779741;29;20174;-70
2021/09/06 05:58:45;;;;;;;1.67;1.55;;;21.30;49.60;;;;;;4778541;29;20110;-75
2021/09/06 06:01:13;;;;;;;1.92;1.40;;;21.20;49.60;;;;;;4778774;29;20195;-74
2021/09/06 06:04:16;;;;;;;5.95;1.73;;;21.10;49.70;;;;;;4776525;29;20078;-73
2021/09/06 06:06:43;;;;;;;1.83;1.50;;;21.10;50.10;;;;;;4774549;29;20105;-74
2021/09/06 06:09:11;;;;;;;3.92;1.73;;;21.00;49.90;;;;;;4783139;29;20075;-71
2021/09/06 06:11:47;;;;;;;1.90;1.42;;;21.00;49.90;;;;;;4772098;29;20055;-72
2021/09/06 06:14:14;;;;;;;3.58;1.50;;;20.90;49.80;;;;;;4769518;29;20723;-71
2021/09/06 06:16:42;;;;;;;6.15;1.40;;;20.90;49.90;;;;;;4775019;29;20142;-76
2021/09/06 06:19:09;;;;;;;4.65;1.70;;;20.80;49.90;;;;;;4774813;29;20120;-73
2021/09/06 06:21:46;;;;;;;5.40;1.85;;;20.80;49.90;;;;;;4779160;29;20732;-71
2021/09/06 06:24:13;;;;;;;5.30;1.85;;;20.80;49.90;;;;;;4772534;29;20146;-72
2021/09/06 06:26:40;;;;;;;4.35;1.55;;;20.80;49.90;;;;;;4775193;29;20063;-74
2021/09/06 06:29:10;;;;;;;2.42;1.52;;;20.80;49.90;;;;;;4777503;29;20047;-70
2021/09/06 06:31:47;;;;;;;1.67;1.00;;;20.70;49.80;;;;;;4779696;29;20584;-72
2021/09/06 06:34:14;;;;;;;2.63;1.00;;;20.70;49.60;;;;;;4770795;29;20051;-71
2021/09/06 06:36:41;;;;;;;3.38;1.58;;;20.70;49.70;;;;;;4786382;29;20147;-75
2021/09/06 06:39:10;;;;;;;4.38;1.90;;;20.70;49.60;;;;;;4785071;29;20055;-75
2021/09/06 06:41:58;;;;;;;4.45;2.05;;;20.60;49.50;;;;;;4780212;29;20055;-69
2021/09/06 06:44:26;;;;;;;1.77;1.05;;;20.60;49.80;;;;;;4768034;29;20115;-72
2021/09/06 06:46:53;;;;;;;2.75;1.55;;;20.60;50.10;;;;;;4781153;29;20065;-72
2021/09/06 06:49:21;;;;;;;4.18;1.58;;;20.60;50.30;;;;;;4784768;29;20134;-73
2021/09/06 06:51:48;;;;;;;5.43;1.50;;;20.60;50.30;;;;;;4777684;29;20539;-74
2021/09/06 06:54:15;;;;;;;1.58;1.25;;;20.60;50.30;;;;;;4773927;29;20139;-74
2021/09/06 06:56:42;;;;;;;5.10;1.38;;;20.60;50.40;;;;;;4781261;29;20047;-72
2021/09/06 06:59:10;;;;;;;5.45;1.50;;;20.60;50.70;;;;;;4781698;29;20053;-73
2021/09/06 07:01:50;;;;;;;2.78;1.25;;;20.50;50.80;;;;;;4780009;29;20416;-72
2021/09/06 07:04:18;;;;;;;2.30;1.50;;;20.60;50.50;;;;;;4773611;29;20055;-72
2021/09/06 07:06:45;;;;;;;1.95;1.15;;;20.60;50.30;;;;;;4780207;29;20055;-78
2021/09/06 07:09:13;;;;;;;3.50;1.13;;;20.60;50.10;;;;;;4781696;29;20171;-73
2021/09/06 07:11:47;;;;;;;5.60;1.20;;;20.50;50.20;;;;;;4796530;29;20998;-76
2021/09/06 07:14:14;;;;;;;2.83;1.48;;;20.50;50.10;;;;;;4776761;29;20047;-75
2021/09/06 07:16:41;;;;;;;2.38;1.10;;;20.50;50.00;;;;;;4782381;29;20129;-72
2021/09/06 07:19:08;;;;;;;5.05;1.85;;;20.50;50.00;;;;;;4788130;29;20051;-75
2021/09/06 07:21:54;;;;;;;2.63;1.40;;;20.50;50.00;;;;;;4785174;29;20130;-77
2021/09/06 07:24:24;;;;;;;6.45;1.27;;;20.50;50.00;;;;;;4773074;29;20070;-74
2021/09/06 07:26:52;;;;;;;4.53;1.10;;;20.50;50.00;;;;;;4785483;29;20078;-75
2021/09/06 07:29:20;;;;;;;2.03;1.15;;;20.50;50.00;;;;;;4784856;29;20793;-73
2021/09/06 07:31:51;;;;;;;1.67;1.00;;;20.50;49.90;;;;;;4781977;29;20051;-73
2021/09/06 07:34:19;;;;;;;2.28;0.85;;;20.50;49.90;;;;;;4776639;29;20054;-73
2021/09/06 07:36:46;;;;;;;3.28;1.10;;;20.60;50.00;;;;;;4777078;29;20051;-71
2021/09/06 07:39:16;;;;;;;1.33;1.10;;;20.60;49.90;;;;;;4784753;29;20112;-78
2021/09/06 07:41:53;;;;;;;4.18;1.17;;;20.60;49.90;;;;;;4778646;29;20907;-69
2021/09/06 07:44:20;;;;;;;1.00;0.82;;;20.60;50.30;;;;;;4774038;29;20055;-74
2021/09/06 07:46:47;;;;;;;2.28;1.30;;;20.60;49.80;;;;;;4779873;29;20146;-74
2021/09/06 07:49:15;;;;;;;2.65;1.27;;;20.70;49.80;;;;;;4781821;29;20047;-71
2021/09/06 07:51:52;;;;;;;1.88;1.20;;;20.70;49.70;;;;;;4781516;29;20059;-74
2021/09/06 07:54:20;;;;;;;2.72;1.30;;;20.70;49.60;;;;;;4779218;29;20106;-74
2021/09/06 07:56:50;;;;;;;2.08;1.48;;;20.70;49.50;;;;;;4780933;29;20711;-72
2021/09/06 07:59:19;;;;;;;1.95;0.98;;;20.70;49.50;;;;;;4778941;29;20094;-72
2021/09/06 08:01:54;;;;;;;2.08;1.25;;;20.70;49.40;;;;;;4774378;29;20082;-72
2021/09/06 08:04:22;;;;;;;3.25;1.30;;;20.70;49.40;;;;;;4776128;29;20067;-70
2021/09/06 08:06:49;;;;;;;2.88;1.05;;;20.70;49.40;;;;;;4784082;29;20078;-73
2021/09/06 08:09:16;;;;;;;2.10;1.23;;;20.70;49.30;;;;;;4787025;29;20222;-70
2021/09/06 08:11:48;;;;;;;3.72;1.98;;;20.70;49.30;;;;;;4778142;29;20161;-69
2021/09/06 08:14:17;;;;;;;4.10;0.98;;;20.70;49.00;;;;;;4770727;29;20142;-73
2021/09/06 08:16:44;;;;;;;2.35;1.10;;;20.80;49.00;;;;;;4780844;29;20062;-71
2021/09/06 08:19:11;;;;;;;1.33;1.17;;;20.80;48.90;;;;;;4782035;29;20673;-68
2021/09/06 08:22:28;;;;;;;1.80;1.05;;;20.80;49.30;;;;;;4783328;29;20130;-68
2021/09/06 08:25:09;;;;;;;1.30;1.13;;;20.80;48.70;;;;;;4777771;29;20051;-75
2021/09/06 08:27:37;;;;;;;3.58;1.65;;;20.80;48.70;;;;;;4783205;29;20128;-70
2021/09/06 08:30:06;;;;;;;4.53;0.98;;;20.80;48.70;;;;;;4783743;29;20130;-70
2021/09/06 08:32:39;;;;;;;2.60;1.35;;;20.80;48.80;;;;;;4774180;29;20567;-70
2021/09/06 08:35:12;;;;;;;4.93;1.40;;;20.80;48.70;;;;;;4773259;29;20406;-73
2021/09/06 08:37:42;;;;;;;2.40;1.20;;;20.80;48.60;;;;;;4786307;29;20138;-72
2021/09/06 08:40:11;;;;;;;1.77;1.35;;;20.80;48.70;;;;;;4778408;29;20043;-74
2021/09/06 08:42:39;;;;;;;2.03;1.15;;;20.80;48.70;;;;;;4775634;29;20127;-73
2021/09/06 08:45:08;;;;;;;1.35;1.20;;;20.80;48.70;;;;;;4775318;29;20078;-73
2021/09/06 08:47:41;;;;;;;4.03;1.17;;;20.90;48.70;;;;;;4779670;29;20055;-71
2021/09/06 08:50:11;;;;;;;2.53;1.20;;;20.80;48.60;;;;;;4786777;29;20046;-75
2021/09/06 08:52:40;;;;;;;3.83;0.95;;;20.80;48.70;;;;;;4780816;29;20726;-72
2021/09/06 08:55:07;;;;;;;2.38;1.20;;;20.90;48.60;;;;;;4773379;29;20119;-72
2021/09/06 08:57:37;;;;;;;1.75;1.02;;;20.90;48.60;;;;;;4784400;29;20120;-73
2021/09/06 09:00:05;;;;;;;2.58;1.17;;;20.90;48.60;;;;;;4780455;29;20081;-72
2021/09/06 09:03:16;;;;;;;1.52;1.20;;;20.90;48.60;;;;;;4774604;29;20640;-72
2021/09/06 09:06:04;;;;;;;3.40;1.20;;;20.90;48.50;;;;;;4778763;29;20435;-73
2021/09/06 09:08:33;;;;;;;2.60;0.90;;;20.90;48.40;;;;;;4786224;29;20059;-71
2021/09/06 09:11:03;;;;;;;1.47;1.10;;;20.90;48.40;;;;;;4782320;29;20120;-73
2021/09/06 09:13:42;;;;;;;4.82;1.73;;;20.90;48.40;;;;;;4772196;29;20322;-72
2021/09/06 09:16:10;;;;;;;3.47;1.60;;;21.00;49.00;;;;;;4777875;29;20063;-70
2021/09/06 09:18:39;;;;;;;2.40;1.08;;;21.00;48.50;;;;;;4782172;29;20126;-70
2021/09/06 09:21:11;;;;;;;1.38;1.05;;;21.00;48.50;;;;;;4791169;29;20732;-69
2021/09/06 09:23:48;;;;;;;2.20;0.98;;;21.00;48.40;;;;;;4775923;29;20109;-71
2021/09/06 09:26:15;;;;;;;3.92;1.48;;;21.00;48.40;;;;;;4780722;29;20118;-72
2021/09/06 09:28:58;;;;;;;3.90;2.15;;;21.00;48.40;;;;;;4780257;29;20063;-73
2021/09/06 09:31:25;;;;;;;3.63;1.25;;;21.00;48.40;;;;;;4782898;29;20121;-74
2021/09/06 09:34:25;;;;;;;2.75;1.33;;;21.00;48.30;;;;;;4776807;29;20051;-72
2021/09/06 09:37:27;;;;;;;3.13;1.20;;;21.00;48.30;;;;;;4782129;29;20126;-69
2021/09/06 09:47:28;;;;;;;4.82;1.30;;;21.10;48.00;;;;;;4789128;29;20051;-72
2021/09/06 09:49:59;;;;;;;3.00;1.20;;;21.10;47.90;;;;;;4790692;29;20146;-69
2021/09/06 09:52:26;;;;;;;2.92;1.20;;;21.30;47.70;;;;;;4790453;29;20517;-69
2021/09/06 09:54:54;;;;;;;1.63;1.10;;;21.50;47.30;;;;;;4790973;29;20078;-70
2021/09/06 09:57:25;;;;;;;2.28;0.90;;;21.70;46.80;;;;;;4790163;29;20051;-71
2021/09/06 09:59:53;;;;;;;1.92;1.40;;;21.90;46.30;;;;;;4778352;29;20133;-73
2021/09/06 10:02:27;;;;;;;1.70;1.33;;;22.10;45.90;;;;;;4776740;29;20084;-70
2021/09/06 10:09:16;;;;;;;1.90;1.02;;;22.50;45.00;;;;;;4773043;29;20042;-71
2021/09/06 10:12:03;;;;;;;1.17;1.08;;;22.70;44.50;;;;;;4779095;29;20669;-71
2021/09/06 10:14:32;;;;;;;4.20;1.17;;;22.80;44.20;;;;;;4773801;29;20512;-70
2021/09/06 10:17:07;;;;;;;1.63;1.13;;;23.00;43.90;;;;;;4783693;29;20055;-72
2021/09/06 10:19:45;;;;;;;4.80;1.25;;;23.00;43.60;;;;;;4782034;29;20063;-73
2021/09/06 10:22:47;;;;;;;1.50;1.00;;;23.10;43.30;;;;;;4774636;29;20517;-73
2021/09/06 10:25:19;;;;;;;1.38;1.23;;;23.20;43.10;;;;;;4787821;29;20055;-73
2021/09/06 10:28:02;;;;;;;1.05;1.00;;;23.30;42.90;;;;;;4781814;29;20066;-71
2021/09/06 10:30:43;;;;;;;1.75;1.40;;;23.40;42.80;;;;;;4788347;29;20043;-70
2021/09/06 10:33:36;;;;;;;2.08;1.23;;;23.40;42.70;;;;;;4774962;29;20746;-72
2021/09/06 10:36:18;;;;;;;3.58;1.75;;;23.50;42.40;;;;;;4776877;29;20138;-71
2021/09/06 10:38:51;;;;;;;1.13;1.13;;;23.60;42.50;;;;;;4788479;29;20105;-71
2021/09/06 10:41:21;;;;;;;2.22;0.93;;;23.60;42.50;;;;;;4779876;29;20046;-71
2021/09/06 10:44:00;;;;;;;2.28;1.00;;;23.60;42.30;;;;;;4782283;29;20051;-70
2021/09/06 10:46:28;;;;;;;2.55;1.63;;;23.70;42.30;;;;;;4779816;29;20142;-66
2021/09/06 10:49:01;;;;;;;1.70;1.35;;;23.80;42.30;;;;;;4783389;29;20701;-75
2021/09/06 10:51:52;;;;;;;2.50;1.38;;;23.80;42.30;;;;;;4785686;29;20119;-71
2021/09/06 10:54:20;;;;;;;2.20;1.17;;;23.80;42.20;;;;;;4776763;29;20397;-75
2021/09/06 10:56:47;;;;;;;2.38;1.40;;;23.90;42.00;;;;;;4769688;29;20059;-73
2021/09/06 10:59:14;;;;;;;3.45;1.50;;;23.90;42.00;;;;;;4782860;29;20146;-72
2021/09/06 11:02:34;;;;;;;2.10;1.33;;;23.90;41.90;;;;;;4783391;29;20081;-71
2021/09/06 11:05:03;;;;;;;2.38;1.05;;;24.00;41.70;;;;;;4772663;29;20554;-72
2021/09/06 11:07:31;;;;;;;3.05;1.40;;;24.00;41.80;;;;;;4781674;29;20082;-69
2021/09/06 11:10:09;;;;;;;1.95;1.63;;;24.00;41.80;;;;;;4780927;29;20058;-71
2021/09/06 11:12:50;;;;;;;1.52;1.38;;;24.00;41.60;;;;;;4774566;29;20063;-70
2021/09/06 11:15:26;;;;;;;3.75;1.88;;;24.10;41.70;;;;;;4775999;29;20056;-70
2021/09/06 11:17:59;;;;;;;2.65;1.42;;;24.10;41.70;;;;;;4782459;29;20069;-70
2021/09/06 11:20:28;;;;;;;3.63;2.05;;;24.20;41.70;;;;;;4782554;29;20093;-69
2021/09/06 11:26:07;;;;;;;1.48;1.20;;;24.20;41.30;;;;;;4781344;29;20573;-71
2021/09/06 11:28:42;;;;;;;3.78;1.45;;;24.30;41.50;;;;;;4787436;29;20080;-77
2021/09/06 11:31:17;;;;;;;3.58;1.70;;;24.30;41.30;;;;;;4785084;29;20073;-69
2021/09/06 11:33:46;;;;;;;3.35;1.42;;;24.30;41.20;;;;;;4777557;29;20051;-69
2021/09/06 11:36:17;;;;;;;2.67;1.90;;;24.40;41.30;;;;;;4781849;29;20098;-75
2021/09/06 11:38:44;;;;;;;3.63;1.60;;;24.40;41.10;;;;;;4780595;29;20043;-69
2021/09/06 11:41:50;;;;;;;3.35;1.90;;;24.30;41.20;;;;;;4777813;29;20749;-69
2021/09/06 11:44:21;;;;;;;2.72;2.00;;;24.40;41.10;;;;;;4773403;29;20138;-71
2021/09/06 11:46:48;;;;;;;4.30;2.08;;;24.40;41.10;;;;;;4781648;29;20075;-69
2021/09/06 11:49:19;;;;;;;3.92;2.08;;;24.50;41.10;;;;;;4785548;29;20054;-70
2021/09/06 11:51:46;;;;;;;1.90;1.45;;;24.50;41.10;;;;;;4781983;29;20047;-72
2021/09/06 11:54:38;;;;;;;2.28;2.08;;;24.50;41.20;;;;;;4779067;29;20049;-72
2021/09/06 11:57:05;;;;;;;1.80;1.60;;;24.50;41.00;;;;;;4778925;29;20104;-69
2021/09/06 11:59:32;;;;;;;2.25;1.95;;;24.50;41.00;;;;;;4781679;29;20599;-76
2021/09/06 12:01:59;;;;;;;2.60;1.95;;;24.50;41.00;;;;;;4773287;29;20051;-72
2021/09/06 12:04:36;;;;;;;3.25;2.20;;;24.50;40.90;;;;;;4778584;29;20051;-70
2021/09/06 12:07:15;;;;;;;3.38;2.13;;;24.50;40.90;;;;;;4775970;29;20044;-73
2021/09/06 12:09:42;;;;;;;5.13;1.85;;;24.60;41.00;;;;;;4784021;29;20090;-72
2021/09/06 12:12:39;;;;;;;3.90;2.47;;;24.60;41.30;;;;;;4777742;29;20062;-70
2021/09/06 12:15:07;;;;;;;4.93;1.60;;;24.60;41.10;;;;;;4776432;29;20652;-70
2021/09/06 12:17:35;;;;;;;4.07;2.25;;;24.60;41.00;;;;;;4782572;29;20110;-70
2021/09/06 12:20:08;;;;;;;4.00;2.10;;;24.70;41.10;;;;;;4785062;29;20094;-69
2021/09/06 12:22:37;;;;;;;2.35;1.95;;;24.70;41.00;;;;;;4776288;29;20802;-73
2021/09/06 12:25:07;;;;;;;2.42;2.22;;;24.70;41.00;;;;;;4777540;29;20147;-77
2021/09/06 12:27:35;;;;;;;4.03;2.33;;;24.70;40.90;;;;;;4773248;29;21046;-71
2021/09/06 12:30:03;;;;;;;3.47;2.00;;;24.70;40.90;;;;;;4780209;29;20057;-71
2021/09/06 12:32:47;;;;;;;2.80;2.05;;;24.70;40.80;;;;;;4778015;29;20138;-73
2021/09/06 12:35:15;;;;;;;3.00;2.00;;;24.70;40.80;;;;;;4776976;29;20082;-74
2021/09/06 12:37:44;;;;;;;2.72;2.05;;;24.70;40.70;;;;;;4777384;29;20084;-73
2021/09/06 12:40:11;;;;;;;3.55;1.88;;;24.70;40.80;;;;;;4786017;29;20071;-73
2021/09/06 12:42:51;;;;;;;2.63;2.00;;;24.70;40.70;;;;;;4775311;29;20059;-73
2021/09/06 12:45:18;;;;;;;3.70;2.80;;;24.70;40.70;;;;;;4780317;29;20057;-74
2021/09/06 12:47:47;;;;;;;2.38;2.00;;;24.70;40.70;;;;;;4782202;29;20130;-73
2021/09/06 12:50:14;;;;;;;5.10;2.25;;;24.80;40.70;;;;;;4786963;29;20051;-75
2021/09/06 12:52:58;;;;;;;2.13;1.92;;;24.80;40.60;;;;;;4775021;29;20089;-72
2021/09/06 12:55:25;;;;;;;2.25;1.90;;;24.80;40.50;;;;;;4770805;29;20051;-73
2021/09/06 12:57:53;;;;;;;5.20;2.55;;;24.90;40.50;;;;;;4782218;29;20131;-71
2021/09/06 13:00:20;;;;;;;2.72;2.28;;;24.80;40.30;;;;;;4784445;29;20082;-72
2021/09/06 13:02:47;;;;;;;3.15;2.50;;;24.90;40.30;;;;;;4777535;29;20716;-74
2021/09/06 13:05:15;;;;;;;2.28;2.08;;;24.90;40.40;;;;;;4808749;29;20051;-73
2021/09/06 13:07:42;;;;;;;2.53;1.92;;;24.90;40.60;;;;;;4809414;29;20086;-71
2021/09/06 13:10:10;;;;;;;2.25;2.05;;;24.90;40.50;;;;;;4809714;29;20082;-71
2021/09/06 13:12:38;;;;;;;5.13;2.22;;;24.90;40.40;;;;;;4808746;29;20103;-72
2021/09/06 13:15:07;;;;;;;3.90;2.60;;;24.90;40.30;;;;;;4789340;29;20154;-75
2021/09/06 13:17:35;;;;;;;2.60;2.40;;;24.90;40.30;;;;;;4794499;29;20051;-78
2021/09/06 13:20:03;;;;;;;2.72;2.42;;;24.90;40.30;;;;;;4777515;29;20130;-70